createdAt,value
2019-03-27T07:39:19.529Z,25.25
2019-03-27T07:41:50.296Z,23.60
2019-03-27T07:44:20.935Z,28.25
2019-03-27T07:46:51.583Z,22.62
2019-03-27T07:49:22.165Z,24.65
2019-03-27T07:51:52.794Z,27.07
2019-03-27T07:54:23.425Z,26.00
2019-03-27T07:56:54.062Z,27.30
2019-03-27T07:59:24.795Z,25.55
2019-03-27T08:01:55.559Z,25.37
2019-03-27T08:04:26.333Z,23.83
2019-03-27T08:06:56.973Z,23.35
2019-03-27T08:09:27.588Z,21.57
2019-03-27T08:11:58.281Z,23.52
2019-03-27T08:14:29.472Z,22.67
2019-03-27T08:17:00.174Z,23.30
2019-03-27T08:19:30.708Z,22.07
2019-03-27T08:22:01.348Z,24.80
2019-03-27T08:24:31.968Z,26.05
2019-03-27T08:27:02.620Z,23.27
2019-03-27T08:29:34.215Z,22.85
2019-03-27T08:32:04.968Z,23.98
2019-03-27T08:34:35.683Z,22.10
2019-03-27T08:37:06.346Z,21.23
2019-03-27T08:39:37.095Z,20.43
2019-03-27T08:42:07.787Z,20.50
2019-03-27T08:44:38.315Z,19.52
2019-03-27T08:47:08.965Z,19.32
2019-03-27T08:49:39.501Z,20.35
2019-03-27T08:52:11.061Z,21.62
2019-03-27T08:54:41.603Z,21.37
2019-03-27T08:57:12.310Z,20.17
2019-03-27T08:59:42.911Z,20.02
2019-03-27T09:02:13.603Z,20.12
2019-03-27T09:04:44.147Z,16.20
2019-03-27T09:07:14.919Z,22.93
2019-03-27T09:09:45.462Z,19.73
2019-03-27T09:12:16.255Z,20.17
2019-03-27T09:14:47.151Z,18.52
2019-03-27T09:17:17.856Z,22.17
2019-03-27T09:19:48.412Z,21.12
2019-03-27T09:22:19.187Z,19.98
2019-03-27T09:24:49.708Z,19.32
2019-03-27T09:27:20.424Z,19.80
2019-03-27T09:29:50.958Z,17.10
2019-03-27T09:32:21.513Z,17.70
2019-03-27T09:34:52.135Z,17.82
2019-03-27T09:37:22.735Z,17.82
2019-03-27T09:39:53.296Z,21.25
2019-03-27T09:42:23.948Z,22.90
2019-03-27T09:44:54.558Z,20.30
2019-03-27T09:47:25.192Z,21.87
2019-03-27T09:49:55.864Z,21.37
2019-03-27T09:52:26.423Z,20.50
2019-03-27T09:54:57.040Z,26.82
2019-03-27T09:57:27.662Z,19.65
2019-03-27T09:59:58.406Z,27.58
2019-03-27T10:02:29.132Z,25.10
2019-03-27T10:04:59.864Z,20.17
2019-03-27T10:07:30.501Z,27.32
2019-03-27T10:10:01.104Z,23.65
2019-03-27T10:12:31.818Z,20.50
2019-03-27T10:15:02.425Z,27.73
2019-03-27T10:17:34.088Z,24.60
2019-03-27T10:20:06.179Z,23.55
2019-03-27T10:22:36.928Z,21.85
2019-03-27T10:25:07.805Z,23.00
2019-03-27T10:27:38.460Z,24.15
2019-03-27T10:30:09.103Z,17.52
2019-03-27T10:32:39.800Z,18.35
2019-03-27T10:35:11.000Z,19.45
2019-03-27T10:37:41.563Z,18.67
2019-03-27T10:40:12.180Z,19.77
2019-03-27T10:42:42.813Z,16.02
2019-03-27T10:45:13.441Z,17.02
2019-03-27T10:50:21.607Z,16.55
2019-03-27T10:52:52.321Z,17.55
2019-03-27T10:55:22.949Z,15.90
2019-03-27T10:57:53.661Z,15.98
2019-03-27T11:00:24.283Z,16.87
2019-03-27T11:02:54.847Z,17.12
2019-03-27T11:05:25.543Z,15.15
2019-03-27T11:07:56.225Z,14.43
2019-03-27T11:10:26.908Z,12.80
2019-03-27T11:12:57.468Z,14.80
2019-03-27T11:15:28.054Z,13.20
2019-03-27T11:17:58.610Z,12.18
2019-03-27T11:20:31.415Z,13.38
2019-03-27T11:23:02.604Z,11.08
2019-03-27T11:25:33.418Z,10.85
2019-03-27T11:28:04.088Z,9.28
2019-03-27T11:30:36.173Z,10.30
2019-03-27T11:33:07.181Z,11.18
2019-03-27T11:35:37.786Z,10.28
2019-03-27T11:38:08.487Z,12.30
2019-03-27T11:40:39.124Z,9.70
2019-03-27T11:43:09.823Z,9.98
2019-03-27T11:45:40.453Z,8.50
2019-03-27T11:48:11.058Z,8.65
2019-03-27T11:50:45.274Z,8.40
2019-03-27T11:53:13.976Z,9.60
2019-03-27T11:55:44.595Z,9.05
2019-03-27T11:58:15.200Z,7.47
2019-03-27T12:00:54.513Z,10.08
2019-03-27T12:03:18.053Z,8.28
2019-03-27T12:05:48.764Z,8.83
2019-03-27T12:08:19.315Z,6.35
2019-03-27T12:10:49.857Z,5.75
2019-03-27T12:13:20.486Z,6.33
2019-03-27T12:15:52.429Z,8.25
2019-03-27T12:18:23.025Z,6.08
2019-03-27T12:20:59.307Z,10.00
2019-03-27T12:23:25.798Z,8.70
2019-03-27T12:25:56.493Z,5.03
2019-03-27T12:28:27.031Z,7.25
2019-03-27T12:30:57.761Z,9.88
2019-03-27T12:33:28.379Z,7.67
2019-03-27T12:35:59.003Z,5.55
2019-03-27T12:38:29.530Z,5.17
2019-03-27T12:41:00.276Z,9.03
2019-03-27T12:43:30.839Z,5.87
2019-03-27T12:46:01.472Z,5.53
2019-03-27T12:48:31.975Z,7.67
2019-03-27T12:51:12.807Z,4.58
2019-03-27T12:53:34.860Z,4.87
2019-03-27T12:56:05.624Z,6.85
2019-03-27T12:58:36.220Z,6.67
2019-03-27T13:01:06.898Z,4.12
2019-03-27T13:03:37.435Z,3.83
2019-03-27T13:06:08.067Z,5.10
2019-03-27T13:08:38.584Z,4.53
2019-03-27T13:11:09.311Z,5.80
2019-03-27T13:13:39.906Z,6.10
2019-03-27T13:16:10.549Z,9.35
2019-03-27T13:18:41.162Z,4.25
2019-03-27T13:21:25.307Z,6.28
2019-03-27T13:23:43.960Z,5.95
2019-03-27T13:26:14.571Z,3.75
2019-03-27T13:28:49.112Z,4.28
2019-03-27T13:31:17.552Z,5.37
2019-03-27T13:33:50.368Z,5.65
2019-03-27T13:36:20.459Z,5.22
2019-03-27T13:38:50.977Z,4.95
2019-03-27T13:41:21.604Z,5.90
2019-03-27T13:43:52.296Z,4.92
2019-03-27T13:46:22.908Z,6.83
2019-03-27T13:48:53.540Z,4.95
2019-03-27T13:51:24.244Z,5.78
2019-03-27T13:53:54.860Z,3.87
2019-03-27T13:56:25.497Z,4.72
2019-03-27T13:58:56.105Z,4.20
2019-03-27T14:01:26.666Z,5.42
2019-03-27T14:03:57.321Z,5.17
2019-03-27T14:06:28.024Z,5.65
2019-03-27T14:08:58.627Z,6.22
2019-03-27T14:11:29.315Z,4.70
2019-03-27T14:14:10.534Z,6.03
2019-03-27T14:16:32.222Z,5.47
2019-03-27T14:19:02.807Z,4.75
2019-03-27T14:21:33.372Z,6.35
2019-03-27T14:24:03.999Z,7.00
2019-03-27T14:26:44.936Z,7.40
2019-03-27T14:29:06.919Z,6.65
2019-03-27T14:31:37.656Z,4.95
2019-03-27T14:34:08.239Z,6.55
2019-03-27T14:36:38.827Z,7.40
2019-03-27T14:39:09.487Z,6.75
2019-03-27T14:41:40.146Z,9.93
2019-03-27T14:44:10.738Z,6.97
2019-03-27T14:46:41.378Z,7.22
2019-03-27T14:49:12.060Z,12.20
2019-03-27T14:51:42.662Z,9.08
2019-03-27T14:54:13.288Z,10.08
2019-03-27T14:56:43.860Z,9.18
2019-03-27T14:59:14.666Z,10.80
2019-03-27T15:01:45.258Z,11.10
2019-03-27T15:04:15.776Z,9.48
2019-03-27T15:06:46.357Z,9.10
2019-03-27T15:09:17.094Z,8.38
2019-03-27T15:11:47.734Z,7.70
2019-03-27T15:14:18.400Z,10.32
2019-03-27T15:16:49.022Z,7.35
2019-03-27T15:19:19.616Z,7.53
2019-03-27T15:21:50.162Z,8.53
2019-03-27T15:24:20.858Z,7.95
2019-03-27T15:26:51.457Z,6.90
2019-03-27T15:29:22.233Z,7.55
2019-03-27T15:31:52.768Z,5.58
2019-03-27T15:34:23.358Z,7.70
2019-03-27T15:36:57.225Z,6.28
2019-03-27T15:39:27.827Z,8.00
2019-03-27T15:41:58.375Z,8.23
2019-03-27T15:44:29.076Z,9.73
2019-03-27T15:46:59.699Z,6.95
2019-03-27T15:49:30.371Z,6.95
2019-03-27T15:52:00.990Z,7.67
2019-03-27T15:54:31.580Z,8.13
2019-03-27T15:57:02.205Z,6.22
2019-03-27T15:59:32.800Z,7.92
2019-03-27T16:02:05.118Z,9.05
2019-03-27T16:04:38.672Z,7.05
2019-03-27T16:07:08.131Z,6.80
2019-03-27T16:09:38.841Z,7.97
2019-03-27T16:12:09.487Z,9.45
2019-03-27T16:14:40.077Z,8.23
2019-03-27T16:17:13.592Z,10.15
2019-03-27T16:19:42.927Z,8.53
2019-03-27T16:22:13.571Z,8.65
2019-03-27T16:24:44.325Z,8.38
2019-03-27T16:27:15.211Z,6.90
2019-03-27T16:29:45.842Z,6.87
2019-03-27T16:32:16.561Z,8.03
2019-03-27T16:34:47.171Z,7.97
2019-03-27T16:37:18.035Z,9.80
2019-03-27T16:39:48.906Z,8.35
2019-03-27T16:42:19.805Z,8.25
2019-03-27T16:44:51.824Z,10.38
2019-03-27T16:47:23.122Z,10.20
2019-03-27T16:49:53.648Z,8.33
2019-03-27T16:52:24.196Z,10.00
2019-03-27T16:54:55.003Z,8.05
2019-03-27T16:57:25.740Z,10.75
2019-03-27T16:59:57.021Z,11.68
2019-03-27T17:02:27.588Z,9.83
2019-03-27T17:04:58.115Z,12.03
2019-03-27T17:07:28.667Z,10.63
2019-03-27T17:09:59.203Z,9.63
2019-03-27T17:12:31.567Z,11.12
2019-03-27T17:15:02.257Z,12.20
2019-03-27T17:17:32.933Z,12.07
2019-03-27T17:20:05.335Z,11.97
2019-03-27T17:22:35.973Z,13.58
2019-03-27T17:25:07.528Z,12.80
2019-03-27T17:27:39.525Z,14.00
2019-03-27T17:30:10.420Z,13.58
2019-03-27T17:32:41.060Z,12.88
2019-03-27T17:35:11.759Z,13.00
2019-03-27T17:37:42.396Z,12.95
2019-03-27T17:40:14.054Z,14.50
2019-03-27T17:42:44.788Z,16.45
2019-03-27T17:45:15.465Z,19.37
2019-03-27T17:47:46.193Z,18.05
2019-03-27T17:50:16.863Z,19.02
2019-03-27T17:52:47.512Z,20.62
2019-03-27T17:55:18.106Z,18.55
2019-03-27T17:57:48.753Z,21.55
2019-03-27T18:00:24.180Z,20.05
2019-03-27T18:02:55.093Z,20.20
2019-03-27T18:05:25.619Z,19.20
2019-03-27T18:07:56.340Z,25.43
2019-03-27T18:10:26.952Z,21.90
2019-03-27T18:12:57.611Z,23.22
2019-03-27T18:15:28.208Z,22.22
2019-03-27T18:17:58.837Z,21.73
2019-03-27T18:20:29.471Z,21.52
2019-03-27T18:23:00.106Z,23.87
2019-03-27T18:25:30.770Z,22.70
2019-03-27T18:28:01.291Z,19.62
2019-03-27T18:30:32.088Z,19.35
2019-03-27T18:33:02.661Z,25.62
2019-03-27T18:35:33.358Z,21.30
2019-03-27T18:38:03.992Z,23.80
2019-03-27T18:40:35.614Z,21.37
2019-03-27T18:43:06.242Z,23.07
2019-03-27T18:45:36.879Z,22.50
2019-03-27T18:48:07.630Z,21.40
2019-03-27T18:50:38.231Z,22.62
2019-03-27T18:53:09.787Z,20.00
2019-03-27T18:55:40.419Z,27.85
2019-03-27T18:58:11.023Z,24.50
2019-03-27T19:00:41.724Z,20.43
2019-03-27T19:03:12.671Z,21.75
2019-03-27T19:05:44.251Z,19.57
2019-03-27T19:08:15.051Z,20.72
2019-03-27T19:10:45.762Z,21.68
2019-03-27T19:13:16.568Z,25.08
2019-03-27T19:15:47.334Z,19.12
2019-03-27T19:18:18.069Z,23.50
2019-03-27T19:20:48.743Z,24.87
2019-03-27T19:23:19.416Z,25.88
2019-03-27T19:25:50.075Z,25.92
2019-03-27T19:28:20.589Z,25.97
2019-03-27T19:30:51.310Z,25.95
2019-03-27T19:33:22.544Z,28.95
2019-03-27T19:35:53.174Z,26.95
2019-03-27T19:38:23.786Z,27.58
2019-03-27T19:40:54.476Z,27.58
2019-03-27T19:43:25.022Z,28.55
2019-03-27T19:45:57.505Z,29.70
2019-03-27T19:48:27.746Z,30.30
2019-03-27T19:50:59.408Z,29.45
2019-03-27T19:53:29.939Z,30.02
2019-03-27T19:56:00.576Z,28.38
2019-03-27T19:58:31.183Z,25.97
2019-03-27T20:01:01.760Z,31.50
2019-03-27T20:03:34.628Z,32.35
2019-03-27T20:06:04.888Z,29.72
